sensor_id;sensor_type;location;lat;lon;timestamp;temperature;humidity
57709;SHT35;42558;52.388;13.390;2023-02-28T00:01:57;0.73;77.59
57709;SHT35;42558;52.388;13.390;2023-02-28T00:04:26;0.79;77.59
57709;SHT35;42558;52.388;13.390;2023-02-28T00:06:56;0.78;77.50
57709;SHT35;42558;52.388;13.390;2023-02-28T00:09:26;0.79;77.50
57709;SHT35;42558;52.388;13.390;2023-02-28T00:11:56;0.81;77.47
57709;SHT35;42558;52.388;13.390;2023-02-28T00:14:26;0.82;77.26
57709;SHT35;42558;52.388;13.390;2023-02-28T00:16:55;0.86;77.21
57709;SHT35;42558;52.388;13.390;2023-02-28T00:19:25;0.85;77.21
57709;SHT35;42558;52.388;13.390;2023-02-28T00:21:55;0.84;77.19
57709;SHT35;42558;52.388;13.390;2023-02-28T00:24:24;0.81;77.30
57709;SHT35;42558;52.388;13.390;2023-02-28T00:26:52;0.79;77.35
57709;SHT35;42558;52.388;13.390;2023-02-28T00:29:20;0.85;77.19
57709;SHT35;42558;52.388;13.390;2023-02-28T00:31:49;0.93;76.82
57709;SHT35;42558;52.388;13.390;2023-02-28T00:34:17;0.93;76.89
57709;SHT35;42558;52.388;13.390;2023-02-28T00:36:46;0.91;77.00
57709;SHT35;42558;52.388;13.390;2023-02-28T00:39:17;0.88;77.05
57709;SHT35;42558;52.388;13.390;2023-02-28T00:41:46;0.89;77.00
57709;SHT35;42558;52.388;13.390;2023-02-28T00:44:14;0.89;76.91
57709;SHT35;42558;52.388;13.390;2023-02-28T00:46:42;0.90;76.99
57709;SHT35;42558;52.388;13.390;2023-02-28T00:49:11;0.88;77.05
57709;SHT35;42558;52.388;13.390;2023-02-28T00:51:39;0.85;77.16
57709;SHT35;42558;52.388;13.390;2023-02-28T00:54:08;0.84;77.12
57709;SHT35;42558;52.388;13.390;2023-02-28T00:56:36;0.83;77.39
57709;SHT35;42558;52.388;13.390;2023-02-28T00:59:05;0.81;77.50
57709;SHT35;42558;52.388;13.390;2023-02-28T01:01:33;0.83;77.56
57709;SHT35;42558;52.388;13.390;2023-02-28T01:04:04;0.82;77.53
57709;SHT35;42558;52.388;13.390;2023-02-28T01:06:34;0.81;77.58
57709;SHT35;42558;52.388;13.390;2023-02-28T01:09:05;0.81;77.60
57709;SHT35;42558;52.388;13.390;2023-02-28T01:11:36;0.81;77.70
57709;SHT35;42558;52.388;13.390;2023-02-28T01:14:08;0.82;77.57
57709;SHT35;42558;52.388;13.390;2023-02-28T01:16:38;0.84;77.49
57709;SHT35;42558;52.388;13.390;2023-02-28T01:19:08;0.81;77.42
57709;SHT35;42558;52.388;13.390;2023-02-28T01:21:38;0.79;77.66
57709;SHT35;42558;52.388;13.390;2023-02-28T01:24:08;0.79;77.70
57709;SHT35;42558;52.388;13.390;2023-02-28T01:26:38;0.76;77.57
57709;SHT35;42558;52.388;13.390;2023-02-28T01:29:08;0.75;77.77
57709;SHT35;42558;52.388;13.390;2023-02-28T01:31:38;0.73;77.96
57709;SHT35;42558;52.388;13.390;2023-02-28T01:34:08;0.73;77.91
57709;SHT35;42558;52.388;13.390;2023-02-28T01:36:38;0.72;77.87
57709;SHT35;42558;52.388;13.390;2023-02-28T01:39:08;0.70;78.05
57709;SHT35;42558;52.388;13.390;2023-02-28T01:41:38;0.68;78.16
57709;SHT35;42558;52.388;13.390;2023-02-28T01:47:23;0.59;78.41
57709;SHT35;42558;52.388;13.390;2023-02-28T01:50:04;0.54;78.63
57709;SHT35;42558;52.388;13.390;2023-02-28T01:52:40;0.50;78.90
57709;SHT35;42558;52.388;13.390;2023-02-28T01:55:12;0.48;79.08
57709;SHT35;42558;52.388;13.390;2023-02-28T01:57:48;0.48;79.10
57709;SHT35;42558;52.388;13.390;2023-02-28T02:00:25;0.45;79.10
57709;SHT35;42558;52.388;13.390;2023-02-28T02:03:05;0.42;79.21
57709;SHT35;42558;52.388;13.390;2023-02-28T02:05:40;0.39;79.56
57709;SHT35;42558;52.388;13.390;2023-02-28T02:08:14;0.37;79.51
57709;SHT35;42558;52.388;13.390;2023-02-28T02:19:14;0.20;79.93
57709;SHT35;42558;52.388;13.390;2023-02-28T02:25:24;0.09;80.04
57709;SHT35;42558;52.388;13.390;2023-02-28T02:31:27;-0.02;80.26
57709;SHT35;42558;52.388;13.390;2023-02-28T02:34:25;-0.10;80.35
57709;SHT35;42558;52.388;13.390;2023-02-28T02:40:38;-0.25;80.68
57709;SHT35;42558;52.388;13.390;2023-02-28T02:43:46;-0.32;80.80
57709;SHT35;42558;52.388;13.390;2023-02-28T02:46:24;-0.38;80.98
57709;SHT35;42558;52.388;13.390;2023-02-28T02:49:03;-0.46;81.17
57709;SHT35;42558;52.388;13.390;2023-02-28T02:51:38;-0.53;81.21
57709;SHT35;42558;52.388;13.390;2023-02-28T02:54:13;-0.62;81.36
57709;SHT35;42558;52.388;13.390;2023-02-28T02:56:49;-0.70;81.69
57709;SHT35;42558;52.388;13.390;2023-02-28T02:59:20;-0.80;81.67
57709;SHT35;42558;52.388;13.390;2023-02-28T03:01:53;-0.87;81.85
57709;SHT35;42558;52.388;13.390;2023-02-28T03:04:32;-0.94;82.05
57709;SHT35;42558;52.388;13.390;2023-02-28T03:07:12;-1.00;82.38
57709;SHT35;42558;52.388;13.390;2023-02-28T03:09:50;-1.05;82.48
57709;SHT35;42558;52.388;13.390;2023-02-28T03:12:23;-1.08;82.62
57709;SHT35;42558;52.388;13.390;2023-02-28T03:15:19;-1.12;82.74
57709;SHT35;42558;52.388;13.390;2023-02-28T03:18:06;-1.18;82.84
57709;SHT35;42558;52.388;13.390;2023-02-28T03:20:49;-1.23;82.95
57709;SHT35;42558;52.388;13.390;2023-02-28T03:23:53;-1.28;83.05
57709;SHT35;42558;52.388;13.390;2023-02-28T03:26:38;-1.31;83.22
57709;SHT35;42558;52.388;13.390;2023-02-28T03:29:22;-1.35;83.39
57709;SHT35;42558;52.388;13.390;2023-02-28T03:32:04;-1.38;83.53
57709;SHT35;42558;52.388;13.390;2023-02-28T03:34:54;-1.39;83.65
57709;SHT35;42558;52.388;13.390;2023-02-28T03:37:35;-1.42;83.55
57709;SHT35;42558;52.388;13.390;2023-02-28T03:40:12;-1.47;83.69
57709;SHT35;42558;52.388;13.390;2023-02-28T03:42:50;-1.49;83.78
57709;SHT35;42558;52.388;13.390;2023-02-28T03:45:30;-1.53;83.82
57709;SHT35;42558;52.388;13.390;2023-02-28T03:48:13;-1.56;83.85
57709;SHT35;42558;52.388;13.390;2023-02-28T03:50:55;-1.60;83.89
57709;SHT35;42558;52.388;13.390;2023-02-28T03:53:31;-1.65;83.90
57709;SHT35;42558;52.388;13.390;2023-02-28T03:56:18;-1.66;84.09
57709;SHT35;42558;52.388;13.390;2023-02-28T03:58:57;-1.70;84.12
57709;SHT35;42558;52.388;13.390;2023-02-28T04:01:37;-1.75;84.09
57709;SHT35;42558;52.388;13.390;2023-02-28T04:04:12;-1.80;84.14
57709;SHT35;42558;52.388;13.390;2023-02-28T04:06:44;-1.85;84.14
57709;SHT35;42558;52.388;13.390;2023-02-28T04:09:14;-1.87;84.33
57709;SHT35;42558;52.388;13.390;2023-02-28T04:11:45;-1.91;84.44
57709;SHT35;42558;52.388;13.390;2023-02-28T04:14:18;-1.95;84.50
57709;SHT35;42558;52.388;13.390;2023-02-28T04:16:45;-1.98;84.63
57709;SHT35;42558;52.388;13.390;2023-02-28T04:19:13;-1.98;84.78
57709;SHT35;42558;52.388;13.390;2023-02-28T04:21:51;-2.02;84.79
57709;SHT35;42558;52.388;13.390;2023-02-28T04:24:24;-2.06;84.80
57709;SHT35;42558;52.388;13.390;2023-02-28T04:26:57;-2.08;84.95
57709;SHT35;42558;52.388;13.390;2023-02-28T04:29:28;-2.13;85.10
57709;SHT35;42558;52.388;13.390;2023-02-28T04:32:04;-2.16;85.11
57709;SHT35;42558;52.388;13.390;2023-02-28T04:34:32;-2.21;85.15
57709;SHT35;42558;52.388;13.390;2023-02-28T04:37:00;-2.26;85.21
57709;SHT35;42558;52.388;13.390;2023-02-28T04:39:42;-2.30;85.31
57709;SHT35;42558;52.388;13.390;2023-02-28T04:42:13;-2.32;85.44
57709;SHT35;42558;52.388;13.390;2023-02-28T04:44:46;-2.32;85.59
57709;SHT35;42558;52.388;13.390;2023-02-28T04:47:16;-2.33;85.64
57709;SHT35;42558;52.388;13.390;2023-02-28T04:49:46;-2.37;85.60
57709;SHT35;42558;52.388;13.390;2023-02-28T04:52:16;-2.38;85.67
57709;SHT35;42558;52.388;13.390;2023-02-28T04:54:45;-2.43;85.68
57709;SHT35;42558;52.388;13.390;2023-02-28T04:57:15;-2.47;85.75
57709;SHT35;42558;52.388;13.390;2023-02-28T04:59:45;-2.48;85.89
57709;SHT35;42558;52.388;13.390;2023-02-28T05:02:15;-2.50;85.94
57709;SHT35;42558;52.388;13.390;2023-02-28T05:04:45;-2.53;86.01
57709;SHT35;42558;52.388;13.390;2023-02-28T05:07:15;-2.55;86.07
57709;SHT35;42558;52.388;13.390;2023-02-28T05:09:42;-2.57;86.18
57709;SHT35;42558;52.388;13.390;2023-02-28T05:12:09;-2.60;86.15
57709;SHT35;42558;52.388;13.390;2023-02-28T05:14:40;-2.63;86.16
57709;SHT35;42558;52.388;13.390;2023-02-28T05:17:10;-2.64;86.33
57709;SHT35;42558;52.388;13.390;2023-02-28T05:19:40;-2.68;86.33
57709;SHT35;42558;52.388;13.390;2023-02-28T05:22:14;-2.71;86.36
57709;SHT35;42558;52.388;13.390;2023-02-28T05:24:45;-2.74;86.42
57709;SHT35;42558;52.388;13.390;2023-02-28T05:27:12;-2.77;86.46
57709;SHT35;42558;52.388;13.390;2023-02-28T05:29:42;-2.79;86.50
57709;SHT35;42558;52.388;13.390;2023-02-28T05:32:13;-2.82;86.50
57709;SHT35;42558;52.388;13.390;2023-02-28T05:34:44;-2.85;86.50
57709;SHT35;42558;52.388;13.390;2023-02-28T05:37:12;-2.89;86.48
57709;SHT35;42558;52.388;13.390;2023-02-28T05:39:43;-2.90;86.61
57709;SHT35;42558;52.388;13.390;2023-02-28T05:42:12;-2.90;86.73
57709;SHT35;42558;52.388;13.390;2023-02-28T05:44:43;-2.93;86.70
57709;SHT35;42558;52.388;13.390;2023-02-28T05:47:12;-2.94;86.77
57709;SHT35;42558;52.388;13.390;2023-02-28T05:49:44;-2.94;86.83
57709;SHT35;42558;52.388;13.390;2023-02-28T05:52:11;-2.96;86.84
57709;SHT35;42558;52.388;13.390;2023-02-28T05:54:41;-2.93;86.98
57709;SHT35;42558;52.388;13.390;2023-02-28T05:57:11;-2.93;86.99
57709;SHT35;42558;52.388;13.390;2023-02-28T05:59:52;-2.95;86.90
57709;SHT35;42558;52.388;13.390;2023-02-28T06:02:21;-2.96;86.90
57709;SHT35;42558;52.388;13.390;2023-02-28T06:04:49;-2.97;86.91
57709;SHT35;42558;52.388;13.390;2023-02-28T06:07:16;-2.98;86.87
57709;SHT35;42558;52.388;13.390;2023-02-28T06:09:45;-3.02;86.82
57709;SHT35;42558;52.388;13.390;2023-02-28T06:12:16;-3.03;86.87
57709;SHT35;42558;52.388;13.390;2023-02-28T06:14:45;-3.02;86.98
57709;SHT35;42558;52.388;13.390;2023-02-28T06:17:13;-3.04;86.92
57709;SHT35;42558;52.388;13.390;2023-02-28T06:19:42;-3.02;87.11
57709;SHT35;42558;52.388;13.390;2023-02-28T06:22:10;-3.01;87.12
57709;SHT35;42558;52.388;13.390;2023-02-28T06:24:39;-2.98;87.17
57709;SHT35;42558;52.388;13.390;2023-02-28T06:27:08;-2.97;87.14
57709;SHT35;42558;52.388;13.390;2023-02-28T06:29:37;-2.94;87.10
57709;SHT35;42558;52.388;13.390;2023-02-28T06:32:09;-2.92;87.14
57709;SHT35;42558;52.388;13.390;2023-02-28T06:34:38;-2.92;87.07
57709;SHT35;42558;52.388;13.390;2023-02-28T06:37:05;-2.90;86.99
57709;SHT35;42558;52.388;13.390;2023-02-28T06:39:34;-2.86;87.00
57709;SHT35;42558;52.388;13.390;2023-02-28T06:42:02;-2.84;86.92
57709;SHT35;42558;52.388;13.390;2023-02-28T06:44:36;-2.81;86.89
57709;SHT35;42558;52.388;13.390;2023-02-28T06:47:04;-2.78;86.89
57709;SHT35;42558;52.388;13.390;2023-02-28T06:49:35;-2.72;86.91
57709;SHT35;42558;52.388;13.390;2023-02-28T06:52:05;-2.65;86.90
57709;SHT35;42558;52.388;13.390;2023-02-28T06:54:36;-2.60;86.90
57709;SHT35;42558;52.388;13.390;2023-02-28T06:57:05;-2.58;86.82
57709;SHT35;42558;52.388;13.390;2023-02-28T06:59:36;-2.53;86.82
57709;SHT35;42558;52.388;13.390;2023-02-28T07:02:05;-2.49;86.84
57709;SHT35;42558;52.388;13.390;2023-02-28T07:04:37;-2.42;86.90
57709;SHT35;42558;52.388;13.390;2023-02-28T07:07:08;-2.33;86.96
57709;SHT35;42558;52.388;13.390;2023-02-28T07:09:38;-2.26;86.95
57709;SHT35;42558;52.388;13.390;2023-02-28T07:12:08;-2.19;86.90
57709;SHT35;42558;52.388;13.390;2023-02-28T07:14:40;-2.11;86.90
57709;SHT35;42558;52.388;13.390;2023-02-28T07:17:10;-1.99;86.91
57709;SHT35;42558;52.388;13.390;2023-02-28T07:19:40;-1.68;86.97
57709;SHT35;42558;52.388;13.390;2023-02-28T07:22:09;0.26;86.29
57709;SHT35;42558;52.388;13.390;2023-02-28T07:24:37;2.95;82.02
57709;SHT35;42558;52.388;13.390;2023-02-28T07:27:05;4.62;73.34
57709;SHT35;42558;52.388;13.390;2023-02-28T07:29:34;5.95;64.83
57709;SHT35;42558;52.388;13.390;2023-02-28T07:32:02;6.59;60.46
57709;SHT35;42558;52.388;13.390;2023-02-28T07:34:31;7.15;58.36
57709;SHT35;42558;52.388;13.390;2023-02-28T07:36:59;7.66;55.47
57709;SHT35;42558;52.388;13.390;2023-02-28T07:39:31;7.96;53.80
57709;SHT35;42558;52.388;13.390;2023-02-28T07:41:59;8.15;52.90
57709;SHT35;42558;52.388;13.390;2023-02-28T07:44:27;8.38;52.25
57709;SHT35;42558;52.388;13.390;2023-02-28T07:46:56;8.53;51.73
57709;SHT35;42558;52.388;13.390;2023-02-28T07:49:24;8.52;51.16
57709;SHT35;42558;52.388;13.390;2023-02-28T07:51:53;8.74;50.86
57709;SHT35;42558;52.388;13.390;2023-02-28T07:54:21;8.69;50.02
57709;SHT35;42558;52.388;13.390;2023-02-28T07:56:49;8.64;49.89
57709;SHT35;42558;52.388;13.390;2023-02-28T07:59:18;8.42;48.60
57709;SHT35;42558;52.388;13.390;2023-02-28T08:01:46;8.14;46.49
57709;SHT35;42558;52.388;13.390;2023-02-28T08:04:19;6.80;47.69
57709;SHT35;42558;52.388;13.390;2023-02-28T08:06:49;6.77;50.24
57709;SHT35;42558;52.388;13.390;2023-02-28T08:09:21;6.78;48.73
57709;SHT35;42558;52.388;13.390;2023-02-28T08:11:51;7.25;51.97
57709;SHT35;42558;52.388;13.390;2023-02-28T08:14:21;6.27;49.02
57709;SHT35;42558;52.388;13.390;2023-02-28T08:16:51;5.34;52.02
57709;SHT35;42558;52.388;13.390;2023-02-28T08:19:21;4.84;50.75
57709;SHT35;42558;52.388;13.390;2023-02-28T08:21:51;4.71;51.25
57709;SHT35;42558;52.388;13.390;2023-02-28T08:24:21;5.00;52.04
57709;SHT35;42558;52.388;13.390;2023-02-28T08:26:51;5.16;52.72
57709;SHT35;42558;52.388;13.390;2023-02-28T08:29:21;5.28;52.85
57709;SHT35;42558;52.388;13.390;2023-02-28T08:31:52;4.94;54.71
57709;SHT35;42558;52.388;13.390;2023-02-28T08:34:22;5.32;54.53
57709;SHT35;42558;52.388;13.390;2023-02-28T08:36:52;5.14;55.04
57709;SHT35;42558;52.388;13.390;2023-02-28T08:39:22;5.29;56.41
57709;SHT35;42558;52.388;13.390;2023-02-28T08:41:52;6.30;55.41
57709;SHT35;42558;52.388;13.390;2023-02-28T08:44:35;7.27;51.45
57709;SHT35;42558;52.388;13.390;2023-02-28T08:47:05;6.60;48.84
57709;SHT35;42558;52.388;13.390;2023-02-28T08:49:36;5.52;52.07
57709;SHT35;42558;52.388;13.390;2023-02-28T08:52:07;4.76;52.36
57709;SHT35;42558;52.388;13.390;2023-02-28T08:54:37;4.88;53.41
57709;SHT35;42558;52.388;13.390;2023-02-28T08:57:06;5.30;53.64
57709;SHT35;42558;52.388;13.390;2023-02-28T08:59:36;5.67;51.57
57709;SHT35;42558;52.388;13.390;2023-02-28T09:02:08;5.66;51.31
57709;SHT35;42558;52.388;13.390;2023-02-28T09:04:41;6.33;50.43
57709;SHT35;42558;52.388;13.390;2023-02-28T09:07:11;6.15;50.24
57709;SHT35;42558;52.388;13.390;2023-02-28T09:09:42;6.02;49.17
57709;SHT35;42558;52.388;13.390;2023-02-28T09:12:24;5.40;49.16
57709;SHT35;42558;52.388;13.390;2023-02-28T09:14:54;4.61;50.77
57709;SHT35;42558;52.388;13.390;2023-02-28T09:17:23;5.01;51.58
57709;SHT35;42558;52.388;13.390;2023-02-28T09:19:59;6.30;49.47
57709;SHT35;42558;52.388;13.390;2023-02-28T09:22:29;6.43;48.99
57709;SHT35;42558;52.388;13.390;2023-02-28T09:24:59;7.00;47.47
57709;SHT35;42558;52.388;13.390;2023-02-28T09:27:28;6.27;45.81
57709;SHT35;42558;52.388;13.390;2023-02-28T09:29:58;6.75;46.13
57709;SHT35;42558;52.388;13.390;2023-02-28T09:32:28;5.94;45.32
57709;SHT35;42558;52.388;13.390;2023-02-28T09:34:58;6.42;46.19
57709;SHT35;42558;52.388;13.390;2023-02-28T09:37:28;5.93;46.59
57709;SHT35;42558;52.388;13.390;2023-02-28T09:40:00;5.56;48.38
57709;SHT35;42558;52.388;13.390;2023-02-28T09:42:31;5.12;48.67
57709;SHT35;42558;52.388;13.390;2023-02-28T09:45:05;5.24;48.71
57709;SHT35;42558;52.388;13.390;2023-02-28T09:47:49;5.05;48.48
57709;SHT35;42558;52.388;13.390;2023-02-28T09:52:56;6.07;48.50
57709;SHT35;42558;52.388;13.390;2023-02-28T09:58:32;4.93;48.98
57709;SHT35;42558;52.388;13.390;2023-02-28T10:01:11;5.07;48.06
57709;SHT35;42558;52.388;13.390;2023-02-28T10:07:13;5.83;48.44
57709;SHT35;42558;52.388;13.390;2023-02-28T10:09:51;5.66;44.91
57709;SHT35;42558;52.388;13.390;2023-02-28T10:12:26;5.91;46.11
57709;SHT35;42558;52.388;13.390;2023-02-28T10:14:58;6.03;44.94
57709;SHT35;42558;52.388;13.390;2023-02-28T10:17:38;6.07;46.14
57709;SHT35;42558;52.388;13.390;2023-02-28T10:20:29;6.60;44.82
57709;SHT35;42558;52.388;13.390;2023-02-28T10:23:16;5.71;44.81
57709;SHT35;42558;52.388;13.390;2023-02-28T10:25:58;5.38;45.50
57709;SHT35;42558;52.388;13.390;2023-02-28T10:28:42;5.38;46.38
57709;SHT35;42558;52.388;13.390;2023-02-28T10:31:18;5.22;46.60
57709;SHT35;42558;52.388;13.390;2023-02-28T10:33:49;6.41;44.61
57709;SHT35;42558;52.388;13.390;2023-02-28T10:36:18;6.73;44.15
57709;SHT35;42558;52.388;13.390;2023-02-28T10:38:48;5.97;43.73
57709;SHT35;42558;52.388;13.390;2023-02-28T10:41:27;5.15;45.56
57709;SHT35;42558;52.388;13.390;2023-02-28T10:44:13;6.86;43.31
57709;SHT35;42558;52.388;13.390;2023-02-28T10:46:49;7.91;43.88
57709;SHT35;42558;52.388;13.390;2023-02-28T10:49:22;7.38;41.52
57709;SHT35;42558;52.388;13.390;2023-02-28T10:51:56;6.78;43.10
57709;SHT35;42558;52.388;13.390;2023-02-28T10:54:30;6.38;43.39
57709;SHT35;42558;52.388;13.390;2023-02-28T10:59:46;7.25;42.93
57709;SHT35;42558;52.388;13.390;2023-02-28T11:02:31;7.54;42.48
57709;SHT35;42558;52.388;13.390;2023-02-28T11:05:23;7.45;42.34
57709;SHT35;42558;52.388;13.390;2023-02-28T11:08:12;7.41;43.14
57709;SHT35;42558;52.388;13.390;2023-02-28T11:10:47;7.54;41.89
57709;SHT35;42558;52.388;13.390;2023-02-28T11:13:33;7.45;41.86
57709;SHT35;42558;52.388;13.390;2023-02-28T11:16:07;7.56;42.44
57709;SHT35;42558;52.388;13.390;2023-02-28T11:21:15;6.94;41.55
57709;SHT35;42558;52.388;13.390;2023-02-28T11:24:20;6.40;44.36
57709;SHT35;42558;52.388;13.390;2023-02-28T11:26:52;6.66;44.96
57709;SHT35;42558;52.388;13.390;2023-02-28T11:29:27;6.50;43.91
57709;SHT35;42558;52.388;13.390;2023-02-28T11:38:11;6.75;43.66
57709;SHT35;42558;52.388;13.390;2023-02-28T11:41:20;6.69;43.42
57709;SHT35;42558;52.388;13.390;2023-02-28T11:44:24;7.12;43.05
57709;SHT35;42558;52.388;13.390;2023-02-28T11:56:39;5.57;45.98
57709;SHT35;42558;52.388;13.390;2023-02-28T12:02:24;5.92;45.57
57709;SHT35;42558;52.388;13.390;2023-02-28T12:17:13;5.84;45.54
57709;SHT35;42558;52.388;13.390;2023-02-28T12:20:04;5.72;46.06
57709;SHT35;42558;52.388;13.390;2023-02-28T12:25:44;5.79;45.56
57709;SHT35;42558;52.388;13.390;2023-02-28T12:28:34;5.27;45.86
57709;SHT35;42558;52.388;13.390;2023-02-28T12:31:14;5.48;47.09
57709;SHT35;42558;52.388;13.390;2023-02-28T12:33:59;5.56;46.01
57709;SHT35;42558;52.388;13.390;2023-02-28T12:36:37;5.50;47.10
57709;SHT35;42558;52.388;13.390;2023-02-28T12:39:26;5.55;46.34
57709;SHT35;42558;52.388;13.390;2023-02-28T12:42:28;5.45;46.51
57709;SHT35;42558;52.388;13.390;2023-02-28T12:45:15;5.40;46.35
57709;SHT35;42558;52.388;13.390;2023-02-28T12:47:55;5.21;46.58
57709;SHT35;42558;52.388;13.390;2023-02-28T12:50:32;5.47;46.44
57709;SHT35;42558;52.388;13.390;2023-02-28T12:53:08;5.72;46.31
57709;SHT35;42558;52.388;13.390;2023-02-28T12:56:00;5.90;47.22
57709;SHT35;42558;52.388;13.390;2023-02-28T12:58:54;5.95;44.64
57709;SHT35;42558;52.388;13.390;2023-02-28T13:07:50;5.32;46.41
57709;SHT35;42558;52.388;13.390;2023-02-28T13:10:45;5.48;46.36
57709;SHT35;42558;52.388;13.390;2023-02-28T13:13:24;5.42;46.14
57709;SHT35;42558;52.388;13.390;2023-02-28T13:18:42;5.53;46.10
57709;SHT35;42558;52.388;13.390;2023-02-28T13:21:27;5.56;46.87
57709;SHT35;42558;52.388;13.390;2023-02-28T13:24:03;5.48;47.20
57709;SHT35;42558;52.388;13.390;2023-02-28T13:34:38;6.02;47.31
57709;SHT35;42558;52.388;13.390;2023-02-28T13:42:36;5.79;46.20
57709;SHT35;42558;52.388;13.390;2023-02-28T13:45:21;5.45;46.29
57709;SHT35;42558;52.388;13.390;2023-02-28T13:48:19;5.61;46.52
57709;SHT35;42558;52.388;13.390;2023-02-28T13:50:58;5.69;45.48
57709;SHT35;42558;52.388;13.390;2023-02-28T13:53:53;5.82;45.78
57709;SHT35;42558;52.388;13.390;2023-02-28T13:56:45;5.95;46.84
57709;SHT35;42558;52.388;13.390;2023-02-28T13:59:27;6.16;47.15
57709;SHT35;42558;52.388;13.390;2023-02-28T14:05:37;7.62;43.35
57709;SHT35;42558;52.388;13.390;2023-02-28T14:08:11;9.17;40.01
57709;SHT35;42558;52.388;13.390;2023-02-28T14:11:02;7.79;40.59
57709;SHT35;42558;52.388;13.390;2023-02-28T14:13:51;6.74;44.64
57709;SHT35;42558;52.388;13.390;2023-02-28T14:16:26;6.28;44.77
57709;SHT35;42558;52.388;13.390;2023-02-28T14:19:17;6.93;44.86
57709;SHT35;42558;52.388;13.390;2023-02-28T14:31:06;10.18;38.23
57709;SHT35;42558;52.388;13.390;2023-02-28T14:36:48;8.99;38.13
57709;SHT35;42558;52.388;13.390;2023-02-28T14:39:25;9.44;39.04
57709;SHT35;42558;52.388;13.390;2023-02-28T14:42:00;10.56;35.84
57709;SHT35;42558;52.388;13.390;2023-02-28T14:44:35;10.92;34.57
57709;SHT35;42558;52.388;13.390;2023-02-28T14:47:03;10.19;35.73
57709;SHT35;42558;52.388;13.390;2023-02-28T14:49:36;11.09;34.49
57709;SHT35;42558;52.388;13.390;2023-02-28T14:52:20;11.72;34.06
57709;SHT35;42558;52.388;13.390;2023-02-28T14:54:54;10.77;33.99
57709;SHT35;42558;52.388;13.390;2023-02-28T14:57:35;8.82;37.44
57709;SHT35;42558;52.388;13.390;2023-02-28T15:02:56;8.53;41.45
57709;SHT35;42558;52.388;13.390;2023-02-28T15:05:30;8.80;39.32
57709;SHT35;42558;52.388;13.390;2023-02-28T15:08:14;8.89;38.60
57709;SHT35;42558;52.388;13.390;2023-02-28T15:10:57;8.24;39.01
57709;SHT35;42558;52.388;13.390;2023-02-28T15:16:31;5.79;44.92
57709;SHT35;42558;52.388;13.390;2023-02-28T15:19:25;6.03;44.96
57709;SHT35;42558;52.388;13.390;2023-02-28T15:21:59;5.96;44.79
57709;SHT35;42558;52.388;13.390;2023-02-28T15:24:39;5.67;45.27
57709;SHT35;42558;52.388;13.390;2023-02-28T15:27:27;5.71;45.75
57709;SHT35;42558;52.388;13.390;2023-02-28T15:30:11;5.68;46.08
57709;SHT35;42558;52.388;13.390;2023-02-28T15:33:22;5.66;46.53
57709;SHT35;42558;52.388;13.390;2023-02-28T15:36:33;5.77;47.24
57709;SHT35;42558;52.388;13.390;2023-02-28T15:38:56;5.93;46.47
57709;SHT35;42558;52.388;13.390;2023-02-28T15:41:44;6.18;46.87
57709;SHT35;42558;52.388;13.390;2023-02-28T15:44:14;5.86;45.88
57709;SHT35;42558;52.388;13.390;2023-02-28T15:47:44;5.89;46.22
57709;SHT35;42558;52.388;13.390;2023-02-28T15:50:00;5.81;46.54
57709;SHT35;42558;52.388;13.390;2023-02-28T15:52:41;5.47;47.76
57709;SHT35;42558;52.388;13.390;2023-02-28T15:55:12;5.49;48.09
57709;SHT35;42558;52.388;13.390;2023-02-28T15:57:51;5.13;48.48
57709;SHT35;42558;52.388;13.390;2023-02-28T16:00:28;5.03;48.59
57709;SHT35;42558;52.388;13.390;2023-02-28T16:03:21;4.94;48.97
57709;SHT35;42558;52.388;13.390;2023-02-28T16:09:15;4.74;49.98
57709;SHT35;42558;52.388;13.390;2023-02-28T16:11:49;4.67;50.51
57709;SHT35;42558;52.388;13.390;2023-02-28T16:14:25;4.61;51.14
57709;SHT35;42558;52.388;13.390;2023-02-28T16:17:02;4.47;51.49
57709;SHT35;42558;52.388;13.390;2023-02-28T16:19:51;4.30;51.20
57709;SHT35;42558;52.388;13.390;2023-02-28T16:22:22;4.29;52.35
57709;SHT35;42558;52.388;13.390;2023-02-28T16:24:50;4.30;53.39
57709;SHT35;42558;52.388;13.390;2023-02-28T16:27:26;4.24;52.89
57709;SHT35;42558;52.388;13.390;2023-02-28T16:30:00;4.13;52.80
57709;SHT35;42558;52.388;13.390;2023-02-28T16:32:30;4.02;52.94
57709;SHT35;42558;52.388;13.390;2023-02-28T16:35:05;3.94;53.15
57709;SHT35;42558;52.388;13.390;2023-02-28T16:37:40;3.90;53.30
57709;SHT35;42558;52.388;13.390;2023-02-28T16:40:15;3.81;53.82
57709;SHT35;42558;52.388;13.390;2023-02-28T16:42:58;3.77;54.15
57709;SHT35;42558;52.388;13.390;2023-02-28T16:45:30;3.71;54.65
57709;SHT35;42558;52.388;13.390;2023-02-28T16:48:00;3.63;55.29
57709;SHT35;42558;52.388;13.390;2023-02-28T16:50:30;3.51;56.18
57709;SHT35;42558;52.388;13.390;2023-02-28T16:53:01;3.37;55.79
57709;SHT35;42558;52.388;13.390;2023-02-28T16:55:31;3.29;56.66
57709;SHT35;42558;52.388;13.390;2023-02-28T16:58:00;3.17;57.70
57709;SHT35;42558;52.388;13.390;2023-02-28T17:00:32;3.09;57.17
57709;SHT35;42558;52.388;13.390;2023-02-28T17:02:59;3.02;58.83
57709;SHT35;42558;52.388;13.390;2023-02-28T17:05:35;2.90;60.12
57709;SHT35;42558;52.388;13.390;2023-02-28T17:08:08;2.76;61.74
57709;SHT35;42558;52.388;13.390;2023-02-28T17:10:40;2.65;62.35
57709;SHT35;42558;52.388;13.390;2023-02-28T17:13:10;2.52;63.18
57709;SHT35;42558;52.388;13.390;2023-02-28T17:15:43;2.34;63.03
57709;SHT35;42558;52.388;13.390;2023-02-28T17:18:16;2.19;63.79
57709;SHT35;42558;52.388;13.390;2023-02-28T17:20:50;2.03;64.82
57709;SHT35;42558;52.388;13.390;2023-02-28T17:23:20;1.93;65.45
57709;SHT35;42558;52.388;13.390;2023-02-28T17:25:49;1.83;65.93
57709;SHT35;42558;52.388;13.390;2023-02-28T17:28:26;1.70;66.08
57709;SHT35;42558;52.388;13.390;2023-02-28T17:30:55;1.58;66.63
57709;SHT35;42558;52.388;13.390;2023-02-28T17:33:25;1.50;67.25
57709;SHT35;42558;52.388;13.390;2023-02-28T17:35:55;1.39;67.10
57709;SHT35;42558;52.388;13.390;2023-02-28T17:38:26;1.29;67.99
57709;SHT35;42558;52.388;13.390;2023-02-28T17:40:55;1.21;68.35
57709;SHT35;42558;52.388;13.390;2023-02-28T17:43:29;1.13;68.68
57709;SHT35;42558;52.388;13.390;2023-02-28T17:45:58;1.04;69.18
57709;SHT35;42558;52.388;13.390;2023-02-28T17:48:28;0.96;69.38
57709;SHT35;42558;52.388;13.390;2023-02-28T17:51:01;0.88;69.54
57709;SHT35;42558;52.388;13.390;2023-02-28T17:53:30;0.80;69.79
57709;SHT35;42558;52.388;13.390;2023-02-28T17:56:00;0.74;70.14
57709;SHT35;42558;52.388;13.390;2023-02-28T17:58:30;0.65;70.29
57709;SHT35;42558;52.388;13.390;2023-02-28T18:01:00;0.55;70.54
57709;SHT35;42558;52.388;13.390;2023-02-28T18:03:30;0.48;70.83
57709;SHT35;42558;52.388;13.390;2023-02-28T18:06:01;0.43;71.20
57709;SHT35;42558;52.388;13.390;2023-02-28T18:08:32;0.36;71.49
57709;SHT35;42558;52.388;13.390;2023-02-28T18:11:04;0.30;71.84